首页
METAR-TAF:

METAR-TAF

机场 :

奥利弗·坦博国际机场

约翰内斯堡, 南非共和國

纬度: 26-08S, 经度: 028-14E, 海拔: 1694米

当前天气观测

该预报发布于25分钟前的00:00 UTC
风速7节,风向东转东南
温度 11°C
湿度 76%
气压 1017 hPa
能见度10公里或以上
1500米以下无云,无积雨云

METAR: FAOR 150000Z 12007KT CAVOK 11/07 Q1017 NOSIG

时间: 02:25 (00:25 UTC)

预报

该预报发布于2小时和25分钟前的22:00 UTC
预报有效从15日的 00点(UTC)到 16日的 06点(UTC)
风速10节,风向
能见度10公里或以上
1500米以下无云,无积雨云
几率 40% :
短暂存在
从 15日的 03点(UTC)到 15日的 05点(UTC)
多云层高于1000英尺
成为
从 15日的 06点(UTC)到 15日的 08点(UTC)
风速7节,风向北转西北
成为
从 15日的 09点(UTC)到 15日的 11点(UTC)
风速10节,风向南转西南
成为
从 15日的 19点(UTC)到 15日的 21点(UTC)
风速10节,风向
成为
从 16日的 04点(UTC)到 16日的 06点(UTC)
风速8节,风向北转东北

TAF: FAOR 142200Z 1500/1606 10010KT CAVOK TX25/1513Z TN14/1503Z PROB40 TEMPO 1503/1505 BKN010 BECMG 1506/1508 33007KT BECMG 1509/1511 20010KT BECMG 1519/1521 10010KT BECMG 1604/1606 03008KT

超过4000个机场的气象观测和天气预报(METAR&TAF报告)。

可查询的气象台以黄色和红色小点在地图上表示。

将鼠标移到小点上方,可查看气象台名称。

然后点击查看天气观测和预报。

如需切换地图:点击带黑十字的绿色按钮放大地图;点击带横线的绿色按钮缩小地图;或者点击绿色箭头查看邻近地区的地图。


METAR-TAF: